sensor_id;sensor_type;location;lat;lon;timestamp;pressure;altitude;pressure_sealevel;temperature;humidity
72124;BME280;63818;37.134;-8.548;2023-05-11T00:00:20;101407.0;;;22.9;36.7
72124;BME280;63818;37.134;-8.548;2023-05-11T00:05:06;101394.3;;;22.8;36.5
72124;BME280;63818;37.134;-8.548;2023-05-11T00:09:54;101394.0;;;22.8;37.1
72124;BME280;63818;37.134;-8.548;2023-05-11T00:14:40;101384.2;;;22.8;37.0
72124;BME280;63818;37.134;-8.548;2023-05-11T00:19:26;101387.8;;;22.8;37.5
72124;BME280;63818;37.134;-8.548;2023-05-11T00:24:12;101382.3;;;22.8;37.4
72124;BME280;63818;37.134;-8.548;2023-05-11T00:28:58;101377.5;;;22.8;37.8
72124;BME280;63818;37.134;-8.548;2023-05-11T00:33:44;101373.4;;;22.6;37.5
72124;BME280;63818;37.134;-8.548;2023-05-11T00:38:30;101374.6;;;22.6;38.4
72124;BME280;63818;37.134;-8.548;2023-05-11T00:43:16;101363.7;;;22.6;38.2
72124;BME280;63818;37.134;-8.548;2023-05-11T00:48:03;101374.6;;;22.6;38.4
72124;BME280;63818;37.134;-8.548;2023-05-11T00:52:49;101376.4;;;22.5;39.0
72124;BME280;63818;37.134;-8.548;2023-05-11T00:57:35;101367.5;;;22.3;39.6
72124;BME280;63818;37.134;-8.548;2023-05-11T01:02:25;101366.2;;;22.2;39.7
72124;BME280;63818;37.134;-8.548;2023-05-11T01:07:15;101366.7;;;22.2;39.7
72124;BME280;63818;37.134;-8.548;2023-05-11T01:12:07;101367.5;;;22.3;39.7
72124;BME280;63818;37.134;-8.548;2023-05-11T01:17:01;101357.2;;;22.2;39.3
72124;BME280;63818;37.134;-8.548;2023-05-11T01:21:49;101352.6;;;22.3;39.6
72124;BME280;63818;37.134;-8.548;2023-05-11T01:26:53;101343.5;;;22.2;39.7
72124;BME280;63818;37.134;-8.548;2023-05-11T01:31:41;101331.7;;;22.1;40.5
72124;BME280;63818;37.134;-8.548;2023-05-11T01:36:33;101324.4;;;22.2;39.9
72124;BME280;63818;37.134;-8.548;2023-05-11T01:41:22;101321.2;;;22.2;39.9
72124;BME280;63818;37.134;-8.548;2023-05-11T01:46:13;101307.0;;;22.1;39.9
72124;BME280;63818;37.134;-8.548;2023-05-11T01:51:01;101304.6;;;22.1;40.1
72124;BME280;63818;37.134;-8.548;2023-05-11T01:55:49;101303.0;;;22.0;40.1
72124;BME280;63818;37.134;-8.548;2023-05-11T02:00:39;101296.1;;;21.9;40.3
72124;BME280;63818;37.134;-8.548;2023-05-11T02:05:27;101288.4;;;21.9;40.8
72124;BME280;63818;37.134;-8.548;2023-05-11T02:10:14;101283.1;;;22.0;40.5
72124;BME280;63818;37.134;-8.548;2023-05-11T02:15:01;101272.5;;;22.0;40.8
72124;BME280;63818;37.134;-8.548;2023-05-11T02:19:48;101268.6;;;22.0;40.8
72124;BME280;63818;37.134;-8.548;2023-05-11T02:24:35;101258.1;;;22.0;41.1
72124;BME280;63818;37.134;-8.548;2023-05-11T02:29:22;101271.8;;;22.0;40.9
72124;BME280;63818;37.134;-8.548;2023-05-11T02:34:14;101266.3;;;22.0;41.1
72124;BME280;63818;37.134;-8.548;2023-05-11T02:39:06;101256.8;;;22.0;40.9
72124;BME280;63818;37.134;-8.548;2023-05-11T02:43:55;101259.6;;;22.0;41.2
72124;BME280;63818;37.134;-8.548;2023-05-11T02:48:46;101260.7;;;22.0;41.4
72124;BME280;63818;37.134;-8.548;2023-05-11T02:53:35;101270.1;;;22.0;41.8
72124;BME280;63818;37.134;-8.548;2023-05-11T02:58:23;101269.8;;;22.0;41.5
72124;BME280;63818;37.134;-8.548;2023-05-11T03:03:09;101262.3;;;22.0;41.5
72124;BME280;63818;37.134;-8.548;2023-05-11T03:07:57;101250.1;;;21.9;41.4
72124;BME280;63818;37.134;-8.548;2023-05-11T03:12:44;101245.7;;;21.9;41.3
72124;BME280;63818;37.134;-8.548;2023-05-11T03:17:31;101246.0;;;21.8;41.8
72124;BME280;63818;37.134;-8.548;2023-05-11T03:22:21;101240.2;;;21.9;41.4
72124;BME280;63818;37.134;-8.548;2023-05-11T03:27:07;101234.0;;;21.9;41.5
72124;BME280;63818;37.134;-8.548;2023-05-11T03:31:54;101253.1;;;21.9;41.6
72124;BME280;63818;37.134;-8.548;2023-05-11T03:36:41;101239.3;;;21.8;41.7
72124;BME280;63818;37.134;-8.548;2023-05-11T03:41:31;101237.4;;;21.8;42.1
72124;BME280;63818;37.134;-8.548;2023-05-11T03:46:20;101245.6;;;21.8;41.9
72124;BME280;63818;37.134;-8.548;2023-05-11T03:51:08;101238.9;;;21.8;42.3
72124;BME280;63818;37.134;-8.548;2023-05-11T03:55:54;101240.1;;;21.8;42.5
72124;BME280;63818;37.134;-8.548;2023-05-11T04:00:41;101243.2;;;21.7;42.4
72124;BME280;63818;37.134;-8.548;2023-05-11T04:05:27;101254.1;;;21.7;42.2
72124;BME280;63818;37.134;-8.548;2023-05-11T04:10:13;101247.8;;;21.7;42.3
72124;BME280;63818;37.134;-8.548;2023-05-11T04:14:59;101243.8;;;21.6;42.6
72124;BME280;63818;37.134;-8.548;2023-05-11T04:19:45;101244.9;;;21.6;42.5
72124;BME280;63818;37.134;-8.548;2023-05-11T04:24:31;101239.4;;;21.5;43.1
72124;BME280;63818;37.134;-8.548;2023-05-11T04:29:17;101230.3;;;21.5;43.0
72124;BME280;63818;37.134;-8.548;2023-05-11T04:34:04;101238.1;;;21.5;42.9
72124;BME280;63818;37.134;-8.548;2023-05-11T04:38:51;101234.5;;;21.4;42.9
72124;BME280;63818;37.134;-8.548;2023-05-11T04:43:36;101228.7;;;21.4;43.0
72124;BME280;63818;37.134;-8.548;2023-05-11T04:48:22;101238.1;;;21.4;42.9
72124;BME280;63818;37.134;-8.548;2023-05-11T04:53:08;101228.7;;;21.4;43.0
72124;BME280;63818;37.134;-8.548;2023-05-11T04:57:54;101244.7;;;21.5;42.9
72124;BME280;63818;37.134;-8.548;2023-05-11T05:02:42;101240.4;;;21.4;43.4
72124;BME280;63818;37.134;-8.548;2023-05-11T05:07:28;101239.5;;;21.4;43.3
72124;BME280;63818;37.134;-8.548;2023-05-11T05:12:14;101231.6;;;21.3;43.4
72124;BME280;63818;37.134;-8.548;2023-05-11T05:17:00;101243.7;;;21.3;43.8
72124;BME280;63818;37.134;-8.548;2023-05-11T05:21:46;101240.7;;;21.4;43.9
72124;BME280;63818;37.134;-8.548;2023-05-11T05:26:32;101238.7;;;21.3;43.7
72124;BME280;63818;37.134;-8.548;2023-05-11T05:31:18;101249.2;;;21.3;43.7
72124;BME280;63818;37.134;-8.548;2023-05-11T05:36:04;101253.8;;;21.3;43.6
72124;BME280;63818;37.134;-8.548;2023-05-11T05:40:49;101252.7;;;21.3;43.2
72124;BME280;63818;37.134;-8.548;2023-05-11T05:45:36;101247.6;;;21.3;43.6
72124;BME280;63818;37.134;-8.548;2023-05-11T05:50:24;101251.1;;;21.3;43.5
72124;BME280;63818;37.134;-8.548;2023-05-11T05:55:10;101254.7;;;21.3;43.7
72124;BME280;63818;37.134;-8.548;2023-05-11T05:59:56;101260.2;;;21.3;43.3
72124;BME280;63818;37.134;-8.548;2023-05-11T06:04:42;101254.3;;;21.4;42.8
72124;BME280;63818;37.134;-8.548;2023-05-11T06:09:29;101257.5;;;21.4;42.8
72124;BME280;63818;37.134;-8.548;2023-05-11T06:14:15;101237.7;;;21.4;42.8
72124;BME280;63818;37.134;-8.548;2023-05-11T06:19:01;101237.9;;;21.4;42.5
72124;BME280;63818;37.134;-8.548;2023-05-11T06:23:47;101255.5;;;21.3;42.4
72124;BME280;63818;37.134;-8.548;2023-05-11T06:28:33;101254.3;;;21.3;42.3
72124;BME280;63818;37.134;-8.548;2023-05-11T06:33:19;101269.2;;;21.4;42.3
72124;BME280;63818;37.134;-8.548;2023-05-11T06:38:05;101263.8;;;21.4;42.3
72124;BME280;63818;37.134;-8.548;2023-05-11T06:42:51;101266.5;;;21.4;41.9
72124;BME280;63818;37.134;-8.548;2023-05-11T06:47:37;101270.1;;;21.4;42.7
72124;BME280;63818;37.134;-8.548;2023-05-11T06:52:23;101267.8;;;21.5;42.1
72124;BME280;63818;37.134;-8.548;2023-05-11T06:57:09;101271.0;;;21.5;42.2
72124;BME280;63818;37.134;-8.548;2023-05-11T07:01:55;101271.7;;;21.5;41.7
72124;BME280;63818;37.134;-8.548;2023-05-11T07:06:41;101257.3;;;21.5;41.5
72124;BME280;63818;37.134;-8.548;2023-05-11T07:11:30;101255.1;;;21.6;41.2
72124;BME280;63818;37.134;-8.548;2023-05-11T07:16:16;101259.4;;;21.6;41.2
72124;BME280;63818;37.134;-8.548;2023-05-11T07:21:03;101254.7;;;21.6;41.1
72124;BME280;63818;37.134;-8.548;2023-05-11T07:25:48;101258.2;;;21.6;41.0
72124;BME280;63818;37.134;-8.548;2023-05-11T07:30:35;101260.5;;;21.6;40.7
72124;BME280;63818;37.134;-8.548;2023-05-11T07:35:21;101270.0;;;21.6;40.7
72124;BME280;63818;37.134;-8.548;2023-05-11T07:40:08;101263.4;;;21.7;40.6
72124;BME280;63818;37.134;-8.548;2023-05-11T07:44:54;101266.2;;;21.7;40.6
72124;BME280;63818;37.134;-8.548;2023-05-11T07:49:41;101265.4;;;21.7;40.8
72124;BME280;63818;37.134;-8.548;2023-05-11T07:54:27;101257.9;;;21.6;40.3
72124;BME280;63818;37.134;-8.548;2023-05-11T07:59:15;101258.4;;;21.7;40.4
72124;BME280;63818;37.134;-8.548;2023-05-11T08:04:08;101260.3;;;21.7;40.0
72124;BME280;63818;37.134;-8.548;2023-05-11T08:08:54;101262.7;;;21.7;39.7
72124;BME280;63818;37.134;-8.548;2023-05-11T08:13:40;101264.7;;;21.8;39.5
72124;BME280;63818;37.134;-8.548;2023-05-11T08:18:31;101263.2;;;21.8;39.7
72124;BME280;63818;37.134;-8.548;2023-05-11T08:23:17;101262.4;;;21.8;39.2
72124;BME280;63818;37.134;-8.548;2023-05-11T08:28:03;101258.5;;;21.8;39.4
72124;BME280;63818;37.134;-8.548;2023-05-11T08:32:51;101262.9;;;21.8;39.5
72124;BME280;63818;37.134;-8.548;2023-05-11T08:37:37;101264.1;;;21.9;39.2
72124;BME280;63818;37.134;-8.548;2023-05-11T08:42:24;101256.3;;;21.9;39.8
72124;BME280;63818;37.134;-8.548;2023-05-11T08:47:12;101255.1;;;21.9;39.4
72124;BME280;63818;37.134;-8.548;2023-05-11T08:52:02;101248.5;;;21.9;39.7
72124;BME280;63818;37.134;-8.548;2023-05-11T08:56:49;101255.1;;;21.9;39.4
72124;BME280;63818;37.134;-8.548;2023-05-11T09:01:36;101267.6;;;21.9;39.4
72124;BME280;63818;37.134;-8.548;2023-05-11T09:06:23;101270.8;;;21.9;39.5
72124;BME280;63818;37.134;-8.548;2023-05-11T09:11:10;101268.1;;;21.9;39.6
72124;BME280;63818;37.134;-8.548;2023-05-11T09:15:56;101259.0;;;21.9;39.8
72124;BME280;63818;37.134;-8.548;2023-05-11T09:20:43;101259.1;;;21.9;40.1
72124;BME280;63818;37.134;-8.548;2023-05-11T09:25:31;101254.8;;;21.9;40.6
72124;BME280;63818;37.134;-8.548;2023-05-11T09:30:19;101249.8;;;22.0;39.5
72124;BME280;63818;37.134;-8.548;2023-05-11T09:35:19;101247.0;;;22.0;39.6
72124;BME280;63818;37.134;-8.548;2023-05-11T09:40:09;101249.8;;;22.0;39.7
72124;BME280;63818;37.134;-8.548;2023-05-11T09:44:55;101249.1;;;22.0;39.5
72124;BME280;63818;37.134;-8.548;2023-05-11T09:49:42;101245.2;;;22.0;38.8
72124;BME280;63818;37.134;-8.548;2023-05-11T09:54:28;101240.1;;;22.1;39.3
72124;BME280;63818;37.134;-8.548;2023-05-11T09:59:16;101234.3;;;22.1;39.5
72124;BME280;63818;37.134;-8.548;2023-05-11T10:04:07;101230.0;;;22.1;38.9
72124;BME280;63818;37.134;-8.548;2023-05-11T10:08:54;101219.9;;;22.1;38.3
72124;BME280;63818;37.134;-8.548;2023-05-11T10:13:44;101247.7;;;22.2;39.1
72124;BME280;63818;37.134;-8.548;2023-05-11T10:18:30;101242.5;;;22.1;39.3
72124;BME280;63818;37.134;-8.548;2023-05-11T10:23:17;101230.0;;;22.1;39.3
72124;BME280;63818;37.134;-8.548;2023-05-11T10:28:04;101225.0;;;22.1;39.0
72124;BME280;63818;37.134;-8.548;2023-05-11T10:32:51;101228.1;;;22.2;38.4
72124;BME280;63818;37.134;-8.548;2023-05-11T10:37:40;101223.1;;;22.2;37.9
72124;BME280;63818;37.134;-8.548;2023-05-11T10:42:36;101229.8;;;22.2;39.0
72124;BME280;63818;37.134;-8.548;2023-05-11T10:47:45;101221.6;;;22.2;38.8
72124;BME280;63818;37.134;-8.548;2023-05-11T10:52:45;101222.3;;;22.2;38.9
72124;BME280;63818;37.134;-8.548;2023-05-11T10:57:52;101208.6;;;22.2;38.7
72124;BME280;63818;37.134;-8.548;2023-05-11T11:02:42;101215.6;;;22.2;39.7
72124;BME280;63818;37.134;-8.548;2023-05-11T11:07:28;101218.4;;;22.2;40.2
72124;BME280;63818;37.134;-8.548;2023-05-11T11:12:15;101210.2;;;22.2;39.9
72124;BME280;63818;37.134;-8.548;2023-05-11T11:17:22;101218.0;;;22.2;39.4
72124;BME280;63818;37.134;-8.548;2023-05-11T11:22:46;101203.5;;;22.2;40.0
72124;BME280;63818;37.134;-8.548;2023-05-11T11:27:56;101190.2;;;22.2;39.5
72124;BME280;63818;37.134;-8.548;2023-05-11T11:32:43;101187.2;;;22.3;38.9
72124;BME280;63818;37.134;-8.548;2023-05-11T11:37:29;101174.2;;;22.2;38.2
72124;BME280;63818;37.134;-8.548;2023-05-11T11:42:17;101171.6;;;22.3;38.1
72124;BME280;63818;37.134;-8.548;2023-05-11T11:47:13;101170.4;;;22.3;37.9
72124;BME280;63818;37.134;-8.548;2023-05-11T11:52:00;101157.1;;;22.4;38.7
72124;BME280;63818;37.134;-8.548;2023-05-11T11:56:46;101132.9;;;22.4;39.2
72124;BME280;63818;37.134;-8.548;2023-05-11T12:01:36;101138.5;;;22.4;40.0
72124;BME280;63818;37.134;-8.548;2023-05-11T12:06:26;101138.1;;;22.5;39.5
72124;BME280;63818;37.134;-8.548;2023-05-11T12:11:17;101140.1;;;22.5;39.1
72124;BME280;63818;37.134;-8.548;2023-05-11T12:16:09;101117.8;;;22.6;39.8
72124;BME280;63818;37.134;-8.548;2023-05-11T12:20:55;101115.1;;;22.6;37.1
72124;BME280;63818;37.134;-8.548;2023-05-11T12:25:41;101094.4;;;22.6;35.0
72124;BME280;63818;37.134;-8.548;2023-05-11T12:30:28;101086.9;;;22.6;34.2
72124;BME280;63818;37.134;-8.548;2023-05-11T12:35:25;101088.2;;;22.7;32.3
72124;BME280;63818;37.134;-8.548;2023-05-11T12:40:12;101085.1;;;22.7;32.5
72124;BME280;63818;37.134;-8.548;2023-05-11T12:44:58;101076.5;;;22.8;32.6
72124;BME280;63818;37.134;-8.548;2023-05-11T12:49:45;101076.1;;;22.8;32.4
72124;BME280;63818;37.134;-8.548;2023-05-11T12:54:33;101068.3;;;22.8;32.7
72124;BME280;63818;37.134;-8.548;2023-05-11T12:59:26;101066.0;;;22.9;33.1
72124;BME280;63818;37.134;-8.548;2023-05-11T13:04:12;101059.0;;;22.9;32.9
72124;BME280;63818;37.134;-8.548;2023-05-11T13:08:58;101056.3;;;22.9;32.8
72124;BME280;63818;37.134;-8.548;2023-05-11T13:13:44;101054.8;;;23.0;32.6
72124;BME280;63818;37.134;-8.548;2023-05-11T13:18:30;101068.5;;;23.2;37.8
72124;BME280;63818;37.134;-8.548;2023-05-11T13:23:20;101068.6;;;23.3;40.1
72124;BME280;63818;37.134;-8.548;2023-05-11T13:28:06;101061.6;;;23.3;40.2
72124;BME280;63818;37.134;-8.548;2023-05-11T13:32:54;101050.6;;;23.3;40.3
72124;BME280;63818;37.134;-8.548;2023-05-11T13:37:41;101056.9;;;23.4;40.8
72124;BME280;63818;37.134;-8.548;2023-05-11T13:42:27;101066.7;;;23.5;40.8
72124;BME280;63818;37.134;-8.548;2023-05-11T13:47:15;101084.0;;;23.5;40.9
72124;BME280;63818;37.134;-8.548;2023-05-11T13:52:01;101063.6;;;23.4;41.4
72124;BME280;63818;37.134;-8.548;2023-05-11T13:56:47;101035.3;;;23.3;38.8
72124;BME280;63818;37.134;-8.548;2023-05-11T14:01:34;101030.7;;;23.5;38.4
72124;BME280;63818;37.134;-8.548;2023-05-11T14:06:23;101032.3;;;23.6;36.7
72124;BME280;63818;37.134;-8.548;2023-05-11T14:11:09;101038.5;;;23.5;38.3
72124;BME280;63818;37.134;-8.548;2023-05-11T14:15:56;101039.4;;;23.7;39.5
72124;BME280;63818;37.134;-8.548;2023-05-11T14:20:42;101022.5;;;23.6;40.0
72124;BME280;63818;37.134;-8.548;2023-05-11T14:25:28;101033.1;;;23.7;40.8
72124;BME280;63818;37.134;-8.548;2023-05-11T14:30:14;101041.0;;;23.8;40.6
72124;BME280;63818;37.134;-8.548;2023-05-11T14:35:00;101021.4;;;23.8;40.5
72124;BME280;63818;37.134;-8.548;2023-05-11T14:39:46;101003.0;;;23.9;40.7
72124;BME280;63818;37.134;-8.548;2023-05-11T14:44:32;100999.4;;;23.9;40.6
72124;BME280;63818;37.134;-8.548;2023-05-11T14:49:19;101029.6;;;24.0;40.7
72124;BME280;63818;37.134;-8.548;2023-05-11T14:54:05;101038.7;;;24.0;40.8
72124;BME280;63818;37.134;-8.548;2023-05-11T14:58:50;100989.2;;;24.0;41.3
72124;BME280;63818;37.134;-8.548;2023-05-11T15:03:36;101001.4;;;24.1;41.3
72124;BME280;63818;37.134;-8.548;2023-05-11T15:08:24;100986.9;;;24.2;41.4
72124;BME280;63818;37.134;-8.548;2023-05-11T15:13:11;101027.7;;;24.2;40.9
72124;BME280;63818;37.134;-8.548;2023-05-11T15:17:56;100992.0;;;24.2;41.7
72124;BME280;63818;37.134;-8.548;2023-05-11T15:22:42;100989.3;;;24.3;41.1
72124;BME280;63818;37.134;-8.548;2023-05-11T15:27:29;101006.5;;;24.3;41.1
72124;BME280;63818;37.134;-8.548;2023-05-11T15:32:14;100997.1;;;24.3;40.7
72124;BME280;63818;37.134;-8.548;2023-05-11T15:37:03;100977.5;;;24.5;40.4
72124;BME280;63818;37.134;-8.548;2023-05-11T15:41:49;101011.2;;;24.5;40.1
72124;BME280;63818;37.134;-8.548;2023-05-11T15:46:35;100960.1;;;24.7;40.0
72124;BME280;63818;37.134;-8.548;2023-05-11T15:51:22;100993.4;;;25.0;39.3
72124;BME280;63818;37.134;-8.548;2023-05-11T15:56:08;100956.8;;;25.3;38.7
72124;BME280;63818;37.134;-8.548;2023-05-11T16:00:54;100971.6;;;25.5;37.8
72124;BME280;63818;37.134;-8.548;2023-05-11T16:05:40;100954.6;;;25.7;37.5
72124;BME280;63818;37.134;-8.548;2023-05-11T16:10:26;100988.6;;;26.0;37.3
72124;BME280;63818;37.134;-8.548;2023-05-11T16:15:12;100951.7;;;25.9;36.4
72124;BME280;63818;37.134;-8.548;2023-05-11T16:19:59;100959.4;;;26.0;36.3
72124;BME280;63818;37.134;-8.548;2023-05-11T16:24:45;100954.6;;;26.2;35.9
72124;BME280;63818;37.134;-8.548;2023-05-11T16:29:31;100945.1;;;26.2;35.8
72124;BME280;63818;37.134;-8.548;2023-05-11T16:34:17;100972.2;;;26.3;35.9
72124;BME280;63818;37.134;-8.548;2023-05-11T16:39:04;100958.4;;;26.3;35.9
72124;BME280;63818;37.134;-8.548;2023-05-11T16:43:49;100973.4;;;26.3;35.7
72124;BME280;63818;37.134;-8.548;2023-05-11T16:48:35;100961.0;;;26.1;35.3
72124;BME280;63818;37.134;-8.548;2023-05-11T16:53:22;100961.0;;;26.1;36.0
72124;BME280;63818;37.134;-8.548;2023-05-11T16:58:08;100981.5;;;26.0;35.7
72124;BME280;63818;37.134;-8.548;2023-05-11T17:02:54;100949.7;;;26.0;36.1
72124;BME280;63818;37.134;-8.548;2023-05-11T17:07:40;100963.5;;;25.9;36.2
72124;BME280;63818;37.134;-8.548;2023-05-11T17:12:27;100977.3;;;25.8;36.3
72124;BME280;63818;37.134;-8.548;2023-05-11T17:17:13;100941.2;;;25.7;36.6
72124;BME280;63818;37.134;-8.548;2023-05-11T17:21:59;100945.2;;;25.6;36.9
72124;BME280;63818;37.134;-8.548;2023-05-11T17:26:45;100965.3;;;25.5;37.4
72124;BME280;63818;37.134;-8.548;2023-05-11T17:31:33;100972.4;;;25.4;37.7
72124;BME280;63818;37.134;-8.548;2023-05-11T17:36:21;100958.7;;;25.3;37.8
72124;BME280;63818;37.134;-8.548;2023-05-11T17:41:07;100954.8;;;25.3;38.0
72124;BME280;63818;37.134;-8.548;2023-05-11T17:45:56;100964.2;;;25.3;37.8
72124;BME280;63818;37.134;-8.548;2023-05-11T17:50:42;100976.4;;;25.3;37.8
72124;BME280;63818;37.134;-8.548;2023-05-11T17:55:29;100954.5;;;25.2;37.9
72124;BME280;63818;37.134;-8.548;2023-05-11T18:00:17;100954.1;;;25.1;37.7
72124;BME280;63818;37.134;-8.548;2023-05-11T18:05:04;100951.8;;;25.1;37.6
72124;BME280;63818;37.134;-8.548;2023-05-11T18:09:50;100953.8;;;25.0;37.7
72124;BME280;63818;37.134;-8.548;2023-05-11T18:14:36;100963.2;;;25.0;37.7
72124;BME280;63818;37.134;-8.548;2023-05-11T18:19:22;100961.7;;;24.9;37.7
72124;BME280;63818;37.134;-8.548;2023-05-11T18:24:08;100963.2;;;24.9;37.4
72124;BME280;63818;37.134;-8.548;2023-05-11T18:28:57;100978.2;;;24.8;37.5
72124;BME280;63818;37.134;-8.548;2023-05-11T18:33:44;100992.7;;;24.8;37.6
72124;BME280;63818;37.134;-8.548;2023-05-11T18:38:30;100984.9;;;24.7;37.7
72124;BME280;63818;37.134;-8.548;2023-05-11T18:43:21;100964.1;;;24.7;37.5
72124;BME280;63818;37.134;-8.548;2023-05-11T18:48:09;100960.6;;;24.6;37.9
72124;BME280;63818;37.134;-8.548;2023-05-11T18:52:55;100961.0;;;24.5;37.8
72124;BME280;63818;37.134;-8.548;2023-05-11T18:57:42;100965.3;;;24.5;37.9
72124;BME280;63818;37.134;-8.548;2023-05-11T19:02:28;100993.5;;;24.5;37.8
72124;BME280;63818;37.134;-8.548;2023-05-11T19:07:14;100977.5;;;24.4;37.7
72124;BME280;63818;37.134;-8.548;2023-05-11T19:11:59;100982.6;;;24.4;37.7
72124;BME280;63818;37.134;-8.548;2023-05-11T19:16:45;100994.0;;;24.3;37.8
72124;BME280;63818;37.134;-8.548;2023-05-11T19:21:32;101004.6;;;24.2;38.0
72124;BME280;63818;37.134;-8.548;2023-05-11T19:26:18;100986.5;;;24.1;38.0
72124;BME280;63818;37.134;-8.548;2023-05-11T19:31:05;101006.1;;;24.1;38.2
72124;BME280;63818;37.134;-8.548;2023-05-11T19:35:51;101004.5;;;24.0;38.7
72124;BME280;63818;37.134;-8.548;2023-05-11T19:40:37;101004.5;;;24.0;38.8
72124;BME280;63818;37.134;-8.548;2023-05-11T19:45:23;101017.1;;;24.0;39.0
72124;BME280;63818;37.134;-8.548;2023-05-11T19:50:10;101024.9;;;23.9;39.1
72124;BME280;63818;37.134;-8.548;2023-05-11T19:54:56;101035.1;;;23.9;39.5
72124;BME280;63818;37.134;-8.548;2023-05-11T19:59:41;101041.4;;;23.8;40.2
72124;BME280;63818;37.134;-8.548;2023-05-11T20:04:28;101030.8;;;23.7;40.4
72124;BME280;63818;37.134;-8.548;2023-05-11T20:09:14;101042.5;;;23.8;40.8
72124;BME280;63818;37.134;-8.548;2023-05-11T20:14:00;101050.4;;;23.8;40.8
72124;BME280;63818;37.134;-8.548;2023-05-11T20:18:46;101060.5;;;23.7;41.1
72124;BME280;63818;37.134;-8.548;2023-05-11T20:23:32;101064.8;;;23.7;41.4
72124;BME280;63818;37.134;-8.548;2023-05-11T20:28:20;101076.2;;;23.6;41.6
72124;BME280;63818;37.134;-8.548;2023-05-11T20:33:06;101074.7;;;23.6;41.5
72124;BME280;63818;37.134;-8.548;2023-05-11T20:37:52;101080.1;;;23.6;41.7
72124;BME280;63818;37.134;-8.548;2023-05-11T20:42:41;101077.0;;;23.6;41.9
72124;BME280;63818;37.134;-8.548;2023-05-11T20:47:27;101079.4;;;23.6;42.1
72124;BME280;63818;37.134;-8.548;2023-05-11T20:52:14;101088.0;;;23.6;42.1
72124;BME280;63818;37.134;-8.548;2023-05-11T20:57:00;101093.9;;;23.7;42.4
72124;BME280;63818;37.134;-8.548;2023-05-11T21:01:46;101099.8;;;23.7;41.7
72124;BME280;63818;37.134;-8.548;2023-05-11T21:06:32;101104.5;;;23.8;41.0
72124;BME280;63818;37.134;-8.548;2023-05-11T21:11:18;101107.2;;;23.8;40.6
72124;BME280;63818;37.134;-8.548;2023-05-11T21:16:05;101115.4;;;23.7;40.3
72124;BME280;63818;37.134;-8.548;2023-05-11T21:20:51;101115.8;;;23.6;40.3
72124;BME280;63818;37.134;-8.548;2023-05-11T21:25:39;101107.2;;;23.6;40.2
72124;BME280;63818;37.134;-8.548;2023-05-11T21:30:28;101122.1;;;23.7;40.2
72124;BME280;63818;37.134;-8.548;2023-05-11T21:35:16;101123.7;;;23.7;40.2
72124;BME280;63818;37.134;-8.548;2023-05-11T21:40:03;101125.2;;;23.7;40.2
72124;BME280;63818;37.134;-8.548;2023-05-11T21:44:49;101128.0;;;23.7;39.9
72124;BME280;63818;37.134;-8.548;2023-05-11T21:49:35;101130.3;;;23.7;39.9
72124;BME280;63818;37.134;-8.548;2023-05-11T21:54:21;101131.1;;;23.7;40.1
72124;BME280;63818;37.134;-8.548;2023-05-11T21:59:07;101137.3;;;23.6;39.7
72124;BME280;63818;37.134;-8.548;2023-05-11T22:03:53;101133.4;;;23.6;39.9
72124;BME280;63818;37.134;-8.548;2023-05-11T22:08:40;101137.8;;;23.6;39.7
72124;BME280;63818;37.134;-8.548;2023-05-11T22:13:26;101129.1;;;23.6;39.7
72124;BME280;63818;37.134;-8.548;2023-05-11T22:18:12;101133.4;;;23.6;39.6
72124;BME280;63818;37.134;-8.548;2023-05-11T22:22:58;101131.1;;;23.6;39.8
72124;BME280;63818;37.134;-8.548;2023-05-11T22:27:43;101131.9;;;23.6;39.8
72124;BME280;63818;37.134;-8.548;2023-05-11T22:32:29;101119.3;;;23.6;39.7
72124;BME280;63818;37.134;-8.548;2023-05-11T22:37:15;101119.3;;;23.6;39.5
72124;BME280;63818;37.134;-8.548;2023-05-11T22:42:01;101129.5;;;23.6;39.1
72124;BME280;63818;37.134;-8.548;2023-05-11T22:46:48;101129.5;;;23.6;39.0
72124;BME280;63818;37.134;-8.548;2023-05-11T22:51:34;101128.7;;;23.6;39.0
72124;BME280;63818;37.134;-8.548;2023-05-11T22:56:19;101126.8;;;23.6;38.8
72124;BME280;63818;37.134;-8.548;2023-05-11T23:01:05;101120.9;;;23.6;38.5
72124;BME280;63818;37.134;-8.548;2023-05-11T23:05:51;101122.0;;;23.6;38.5
72124;BME280;63818;37.134;-8.548;2023-05-11T23:10:37;101112.6;;;23.5;38.2
72124;BME280;63818;37.134;-8.548;2023-05-11T23:15:22;101101.3;;;23.5;38.4
72124;BME280;63818;37.134;-8.548;2023-05-11T23:20:09;101097.7;;;23.5;38.3
72124;BME280;63818;37.134;-8.548;2023-05-11T23:24:56;101102.8;;;23.5;38.3
72124;BME280;63818;37.134;-8.548;2023-05-11T23:29:42;101102.4;;;23.4;38.5
72124;BME280;63818;37.134;-8.548;2023-05-11T23:34:28;101099.6;;;23.4;38.3
72124;BME280;63818;37.134;-8.548;2023-05-11T23:39:16;101105.1;;;23.3;38.3
72124;BME280;63818;37.134;-8.548;2023-05-11T23:44:02;101105.4;;;23.3;38.5
72124;BME280;63818;37.134;-8.548;2023-05-11T23:48:48;101106.6;;;23.3;38.5
72124;BME280;63818;37.134;-8.548;2023-05-11T23:53:34;101105.4;;;23.2;38.4
72124;BME280;63818;37.134;-8.548;2023-05-11T23:58:21;101105.0;;;23.2;38.7
